Time;durP1;ratioP1;P1;durP2;ratioP2;P2;SDS_P1;SDS_P2;PMS_P1;PMS_P2;Temp;Humidity;BMP_temperature;BMP_pressure;BME280_temperature;BME280_humidity;BME280_pressure;Samples;Min_cycle;Max_cycle;Signal;HPM_P1;HPM_P2
2022/08/05 00:01:00;;;;;;;8.05;7.25;;;;;;;;;;5045494;28;20051;-75
2022/08/05 00:03:26;;;;;;;7.43;6.82;;;;;;;;;;5026208;28;20033;-75
2022/08/05 00:05:52;;;;;;;8.50;7.70;;;;;;;;;;5045049;28;20052;-75
2022/08/05 00:08:18;;;;;;;9.57;8.10;;;;;;;;;;5044649;28;20040;-75
2022/08/05 00:10:44;;;;;;;8.48;7.78;;;;;;;;;;5045550;28;20029;-75
2022/08/05 00:13:10;;;;;;;8.52;7.68;;;;;;;;;;5044859;28;20037;-75
2022/08/05 00:15:35;;;;;;;8.95;7.63;;;;;;;;;;5044281;28;20592;-75
2022/08/05 00:18:01;;;;;;;8.90;8.20;;;;;;;;;;5046988;28;20037;-75
2022/08/05 00:20:26;;;;;;;10.82;7.50;;;;;;;;;;5046531;28;20040;-75
2022/08/05 00:22:52;;;;;;;8.40;7.68;;;;;;;;;;5046538;28;20044;-75
2022/08/05 00:25:17;;;;;;;8.15;7.45;;;;;;;;;;5022376;28;20580;-76
2022/08/05 00:27:43;;;;;;;8.43;7.72;;;;;;;;;;5047696;28;20045;-75
2022/08/05 00:30:09;;;;;;;8.23;7.53;;;;;;;;;;5040875;28;20048;-75
2022/08/05 00:32:35;;;;;;;9.43;8.10;;;;;;;;;;5044555;28;20029;-75
2022/08/05 00:35:00;;;;;;;9.32;8.10;;;;;;;;;;5044452;28;20047;-75
2022/08/05 00:37:26;;;;;;;8.48;7.88;;;;;;;;;;5046529;28;20758;-75
2022/08/05 00:39:51;;;;;;;8.32;7.72;;;;;;;;;;5044498;28;20685;-75
2022/08/05 00:42:30;;;;;;;9.35;8.05;;;;;;;;;;5043117;28;20041;-75
2022/08/05 00:44:56;;;;;;;9.98;7.90;;;;;;;;;;5042176;28;20044;-75
2022/08/05 00:47:22;;;;;;;8.82;8.00;;;;;;;;;;5045015;28;20078;-75
2022/08/05 00:49:48;;;;;;;10.52;8.18;;;;;;;;;;5024637;28;20036;-76
2022/08/05 00:52:13;;;;;;;9.07;8.18;;;;;;;;;;5043222;28;20029;-75
2022/08/05 00:54:39;;;;;;;9.82;8.23;;;;;;;;;;5045347;28;20095;-75
2022/08/05 00:57:04;;;;;;;11.63;8.50;;;;;;;;;;5048320;28;20033;-75
2022/08/05 00:59:30;;;;;;;9.05;8.00;;;;;;;;;;5050005;28;20033;-76
2022/08/05 01:01:55;;;;;;;8.70;7.70;;;;;;;;;;5043230;28;20040;-74
2022/08/05 01:04:21;;;;;;;8.48;7.70;;;;;;;;;;5051132;28;20044;-75
2022/08/05 01:06:47;;;;;;;8.80;7.93;;;;;;;;;;5043760;28;20033;-75
2022/08/05 01:09:13;;;;;;;9.68;8.32;;;;;;;;;;5029601;28;20041;-75
2022/08/05 01:11:40;;;;;;;9.02;8.07;;;;;;;;;;5049251;28;20400;-75
2022/08/05 01:14:05;;;;;;;8.43;7.63;;;;;;;;;;5048895;28;20102;-75
2022/08/05 01:16:58;;;;;;;8.50;7.80;;;;;;;;;;5045417;28;20041;-75
2022/08/05 01:19:38;;;;;;;10.35;7.63;;;;;;;;;;5044188;28;20693;-75
2022/08/05 01:22:12;;;;;;;8.38;7.78;;;;;;;;;;5048178;28;20056;-75
2022/08/05 01:25:02;;;;;;;8.80;8.10;;;;;;;;;;5045253;28;20124;-75
2022/08/05 01:27:48;;;;;;;8.27;7.57;;;;;;;;;;5046830;28;20498;-75
2022/08/05 01:30:15;;;;;;;8.45;7.75;;;;;;;;;;5042405;28;20060;-75
2022/08/05 01:32:45;;;;;;;8.35;7.55;;;;;;;;;;5050506;28;20107;-75
2022/08/05 01:35:17;;;;;;;7.97;7.28;;;;;;;;;;5042727;28;20052;-75
2022/08/05 01:37:50;;;;;;;7.85;6.80;;;;;;;;;;5043322;28;20037;-75
2022/08/05 01:40:18;;;;;;;10.75;7.35;;;;;;;;;;5047247;28;20052;-75
2022/08/05 01:42:45;;;;;;;8.70;7.88;;;;;;;;;;5046287;28;20033;-75
2022/08/05 01:45:14;;;;;;;9.75;7.43;;;;;;;;;;5049064;28;20498;-75
2022/08/05 01:47:42;;;;;;;7.43;6.90;;;;;;;;;;5043293;28;20034;-75
2022/08/05 01:50:14;;;;;;;9.17;7.13;;;;;;;;;;5048830;28;20079;-74
2022/08/05 01:52:42;;;;;;;7.72;7.05;;;;;;;;;;5042114;28;20779;-74
2022/08/05 01:55:11;;;;;;;8.07;7.28;;;;;;;;;;5046840;28;20118;-75
2022/08/05 01:57:40;;;;;;;8.13;7.32;;;;;;;;;;5031036;28;20044;-75
2022/08/05 02:00:08;;;;;;;8.73;6.68;;;;;;;;;;5030312;28;20101;-75
2022/08/05 02:02:36;;;;;;;7.53;6.78;;;;;;;;;;5047155;28;20025;-75
2022/08/05 02:05:07;;;;;;;7.03;6.32;;;;;;;;;;5048478;28;20123;-75
2022/08/05 02:07:34;;;;;;;7.47;6.72;;;;;;;;;;5045974;28;20855;-75
2022/08/05 02:10:00;;;;;;;8.98;6.60;;;;;;;;;;5029693;28;20029;-75
2022/08/05 02:12:48;;;;;;;7.20;6.50;;;;;;;;;;5046872;28;20057;-75
2022/08/05 02:15:25;;;;;;;8.82;6.85;;;;;;;;;;5045835;28;20500;-75
2022/08/05 02:18:01;;;;;;;7.70;6.30;;;;;;;;;;5039864;28;20041;-74
2022/08/05 02:20:32;;;;;;;8.85;6.65;;;;;;;;;;5046211;28;20029;-75
2022/08/05 02:23:04;;;;;;;8.55;6.72;;;;;;;;;;5047302;28;20037;-75
2022/08/05 02:25:39;;;;;;;9.05;6.50;;;;;;;;;;5037149;28;20097;-75
2022/08/05 02:28:07;;;;;;;8.45;6.80;;;;;;;;;;5043654;28;20056;-75
2022/08/05 02:30:45;;;;;;;9.90;6.55;;;;;;;;;;5042492;28;20127;-76
2022/08/05 02:33:15;;;;;;;11.02;6.85;;;;;;;;;;5029073;28;20029;-75
2022/08/05 02:35:43;;;;;;;8.05;6.65;;;;;;;;;;5042685;28;20060;-75
2022/08/05 02:38:09;;;;;;;8.07;6.60;;;;;;;;;;5048326;28;20092;-75
2022/08/05 02:40:36;;;;;;;11.48;6.22;;;;;;;;;;5044153;28;20295;-75
2022/08/05 02:43:04;;;;;;;6.88;6.15;;;;;;;;;;5047435;28;20064;-75
2022/08/05 02:45:32;;;;;;;8.47;6.27;;;;;;;;;;5044873;28;20020;-75
2022/08/05 02:48:00;;;;;;;7.38;6.45;;;;;;;;;;5039916;28;20049;-76
2022/08/05 02:50:26;;;;;;;8.48;6.63;;;;;;;;;;5048001;28;20037;-75
2022/08/05 02:52:53;;;;;;;7.30;6.47;;;;;;;;;;5046313;28;20037;-75
2022/08/05 02:55:19;;;;;;;9.68;6.53;;;;;;;;;;5045086;28;20176;-75
2022/08/05 02:57:45;;;;;;;9.43;6.60;;;;;;;;;;5046299;28;20091;-75
2022/08/05 03:00:12;;;;;;;15.60;6.90;;;;;;;;;;5050873;28;20070;-75
2022/08/05 03:02:40;;;;;;;14.05;6.82;;;;;;;;;;5029874;28;20029;-76
2022/08/05 03:05:10;;;;;;;15.47;6.50;;;;;;;;;;5044552;28;20144;-75
2022/08/05 03:07:37;;;;;;;7.85;6.70;;;;;;;;;;5046875;28;20362;-75
2022/08/05 03:10:03;;;;;;;7.65;6.95;;;;;;;;;;5047530;28;20116;-75
2022/08/05 03:12:33;;;;;;;7.72;6.60;;;;;;;;;;5048792;28;20029;-75
2022/08/05 03:14:59;;;;;;;10.55;7.30;;;;;;;;;;5044741;28;20040;-75
2022/08/05 03:17:25;;;;;;;9.25;6.80;;;;;;;;;;5044418;28;20052;-76
2022/08/05 03:19:51;;;;;;;8.77;7.20;;;;;;;;;;5026436;28;20502;-75
2022/08/05 03:22:17;;;;;;;7.95;7.15;;;;;;;;;;5030271;28;20052;-75
2022/08/05 03:24:44;;;;;;;9.48;7.20;;;;;;;;;;5043913;28;20297;-75
2022/08/05 03:27:11;;;;;;;10.27;7.10;;;;;;;;;;5046306;28;20030;-75
2022/08/05 03:29:37;;;;;;;7.75;6.70;;;;;;;;;;5046125;28;20032;-75
2022/08/05 03:32:04;;;;;;;8.20;7.03;;;;;;;;;;5043975;28;20675;-75
2022/08/05 03:34:31;;;;;;;7.50;6.78;;;;;;;;;;5046676;28;20064;-77
2022/08/05 03:36:57;;;;;;;10.98;7.10;;;;;;;;;;5044969;28;20025;-77
2022/08/05 03:39:22;;;;;;;11.98;7.15;;;;;;;;;;5042119;28;20044;-77
2022/08/05 03:41:48;;;;;;;9.30;6.72;;;;;;;;;;5045577;28;20025;-77
2022/08/05 03:44:13;;;;;;;8.95;6.75;;;;;;;;;;5040769;28;20112;-77
2022/08/05 03:46:39;;;;;;;7.35;6.60;;;;;;;;;;5029785;28;20049;-77
2022/08/05 03:49:05;;;;;;;9.50;7.05;;;;;;;;;;5044244;28;20459;-77
2022/08/05 03:51:39;;;;;;;9.80;7.20;;;;;;;;;;5044470;28;20056;-78
2022/08/05 03:54:20;;;;;;;7.93;7.20;;;;;;;;;;5045570;28;20222;-78
2022/08/05 03:56:47;;;;;;;11.88;7.13;;;;;;;;;;5040243;28;20064;-77
2022/08/05 03:59:18;;;;;;;8.15;6.95;;;;;;;;;;5045524;28;20082;-77
2022/08/05 04:01:46;;;;;;;10.50;7.05;;;;;;;;;;5042106;28;20042;-77
2022/08/05 04:04:15;;;;;;;8.35;6.60;;;;;;;;;;5047505;28;20526;-77
2022/08/05 04:06:41;;;;;;;;;;;;;;;;;;5044169;28;20411;-77
2022/08/05 04:09:07;;;;;;;7.70;6.88;;;;;;;;;;5045064;28;19913;-77
2022/08/05 04:11:37;;;;;;;8.05;7.25;;;;;;;;;;5045612;28;20515;-77
2022/08/05 04:14:04;;;;;;;8.93;7.32;;;;;;;;;;5046150;28;20163;-77
2022/08/05 04:16:31;;;;;;;10.27;7.43;;;;;;;;;;5048588;28;20033;-77
2022/08/05 04:18:56;;;;;;;8.23;7.43;;;;;;;;;;5042646;28;20038;-77
2022/08/05 04:21:22;;;;;;;10.57;7.50;;;;;;;;;;5041969;28;20773;-77
2022/08/05 04:23:48;;;;;;;9.43;7.32;;;;;;;;;;5043618;28;20504;-77
2022/08/05 04:26:14;;;;;;;16.10;7.78;;;;;;;;;;5041298;28;20037;-77
2022/08/05 04:28:40;;;;;;;8.95;7.53;;;;;;;;;;5026604;28;20036;-77
2022/08/05 04:31:05;;;;;;;9.52;7.00;;;;;;;;;;5046433;28;20041;-77
2022/08/05 04:33:31;;;;;;;13.35;7.18;;;;;;;;;;5047374;28;20078;-77
2022/08/05 04:35:56;;;;;;;7.88;6.90;;;;;;;;;;5012797;28;20049;-77
2022/08/05 04:38:22;;;;;;;13.20;7.40;;;;;;;;;;5032601;28;20567;-77
2022/08/05 04:40:48;;;;;;;8.35;7.55;;;;;;;;;;5049348;28;20076;-77
2022/08/05 04:43:13;;;;;;;8.90;7.65;;;;;;;;;;5044687;28;20040;-77
2022/08/05 04:45:39;;;;;;;8.65;7.85;;;;;;;;;;5033149;28;20492;-77
2022/08/05 04:48:07;;;;;;;10.73;8.20;;;;;;;;;;5048723;28;20532;-77
2022/08/05 04:50:44;;;;;;;12.68;7.95;;;;;;;;;;5051912;28;20045;-77
2022/08/05 04:53:11;;;;;;;8.60;7.80;;;;;;;;;;5029688;28;20040;-77
2022/08/05 04:55:38;;;;;;;9.00;7.65;;;;;;;;;;5050174;28;20036;-77
2022/08/05 04:58:08;;;;;;;8.93;8.15;;;;;;;;;;5049837;28;20044;-77
2022/08/05 05:00:35;;;;;;;10.05;8.30;;;;;;;;;;5028743;28;20120;-77
2022/08/05 05:03:02;;;;;;;9.70;8.70;;;;;;;;;;5045517;28;20068;-77
2022/08/05 05:05:27;;;;;;;10.68;7.90;;;;;;;;;;5047764;28;20141;-77
2022/08/05 05:08:05;;;;;;;11.90;8.48;;;;;;;;;;5047811;28;20456;-77
2022/08/05 05:10:36;;;;;;;13.43;8.73;;;;;;;;;;5028555;28;20035;-77
2022/08/05 05:13:01;;;;;;;13.77;8.10;;;;;;;;;;5049382;28;20036;-77
2022/08/05 05:15:27;;;;;;;9.15;8.32;;;;;;;;;;5049039;28;20040;-77
2022/08/05 05:17:52;;;;;;;10.77;8.85;;;;;;;;;;5047953;28;20037;-77
2022/08/05 05:20:18;;;;;;;9.82;8.65;;;;;;;;;;5037723;28;20071;-77
2022/08/05 05:22:44;;;;;;;11.63;8.30;;;;;;;;;;5033679;28;20095;-77
2022/08/05 05:25:11;;;;;;;12.60;8.98;;;;;;;;;;5030458;28;21625;-77
2022/08/05 05:27:37;;;;;;;10.07;8.55;;;;;;;;;;5048801;28;20120;-77
2022/08/05 05:30:03;;;;;;;9.40;8.00;;;;;;;;;;5027340;28;20124;-77
2022/08/05 05:32:29;;;;;;;12.48;8.50;;;;;;;;;;5029780;28;20032;-77
2022/08/05 05:34:54;;;;;;;8.93;8.00;;;;;;;;;;5045799;28;20043;-77
2022/08/05 05:37:20;;;;;;;10.35;8.43;;;;;;;;;;5048212;28;20691;-77
2022/08/05 05:39:46;;;;;;;18.17;8.70;;;;;;;;;;5030977;28;20091;-77
2022/08/05 05:42:11;;;;;;;11.45;8.07;;;;;;;;;;5046080;28;20119;-77
2022/08/05 05:44:37;;;;;;;16.83;8.13;;;;;;;;;;5031215;28;20037;-77
2022/08/05 05:47:03;;;;;;;10.70;8.80;;;;;;;;;;5051016;28;20060;-77
2022/08/05 05:49:28;;;;;;;11.27;9.00;;;;;;;;;;5046330;28;20065;-78
2022/08/05 05:51:54;;;;;;;12.80;8.60;;;;;;;;;;5047502;28;20029;-77
2022/08/05 05:54:20;;;;;;;9.43;8.27;;;;;;;;;;5047272;28;20025;-77
2022/08/05 05:56:46;;;;;;;13.13;8.45;;;;;;;;;;5046810;28;20412;-78
2022/08/05 05:59:11;;;;;;;14.68;9.15;;;;;;;;;;5030196;28;20048;-77
2022/08/05 06:01:39;;;;;;;13.45;8.82;;;;;;;;;;5035131;28;20040;-77
2022/08/05 06:04:09;;;;;;;11.07;8.70;;;;;;;;;;5052303;28;20454;-77
2022/08/05 06:06:35;;;;;;;10.80;8.50;;;;;;;;;;5034418;28;20052;-78
2022/08/05 06:09:03;;;;;;;15.75;9.38;;;;;;;;;;5052785;28;20072;-80
2022/08/05 06:11:28;;;;;;;13.57;8.73;;;;;;;;;;5033909;28;20037;-78
2022/08/05 06:13:54;;;;;;;11.23;8.82;;;;;;;;;;5053639;28;20401;-77
2022/08/05 06:16:20;;;;;;;10.88;8.73;;;;;;;;;;5024832;28;20041;-77
2022/08/05 06:18:45;;;;;;;10.68;8.90;;;;;;;;;;5050993;28;20036;-76
2022/08/05 06:21:11;;;;;;;12.02;8.35;;;;;;;;;;5032300;28;20033;-77
2022/08/05 06:23:37;;;;;;;9.07;8.18;;;;;;;;;;5048370;28;20043;-74
2022/08/05 06:26:02;;;;;;;11.20;8.23;;;;;;;;;;5033446;28;20060;-80
2022/08/05 06:28:28;;;;;;;13.60;8.10;;;;;;;;;;5031991;28;20041;-77
2022/08/05 06:30:53;;;;;;;9.07;7.68;;;;;;;;;;5046599;28;20040;-77
2022/08/05 06:33:19;;;;;;;18.42;8.13;;;;;;;;;;5036287;28;20036;-78
2022/08/05 06:35:44;;;;;;;8.82;7.93;;;;;;;;;;5054599;28;20120;-78
2022/08/05 06:38:10;;;;;;;9.32;6.85;;;;;;;;;;5032936;28;20074;-79
2022/08/05 06:40:35;;;;;;;8.13;7.20;;;;;;;;;;5037548;28;20029;-77
2022/08/05 06:43:01;;;;;;;7.88;7.15;;;;;;;;;;5031429;28;20045;-77
2022/08/05 06:45:27;;;;;;;8.68;7.70;;;;;;;;;;5053371;28;20144;-79
2022/08/05 06:47:52;;;;;;;8.23;7.15;;;;;;;;;;5032193;28;20032;-78
2022/08/05 06:50:18;;;;;;;9.45;7.63;;;;;;;;;;5033524;28;20033;-77
2022/08/05 06:52:43;;;;;;;8.68;7.82;;;;;;;;;;5034385;28;20032;-78
2022/08/05 06:55:09;;;;;;;13.95;7.88;;;;;;;;;;5044447;28;20040;-79
2022/08/05 06:57:34;;;;;;;8.38;7.63;;;;;;;;;;5026727;28;20762;-78
2022/08/05 07:00:02;;;;;;;9.27;7.65;;;;;;;;;;5051499;28;20040;-78
2022/08/05 07:02:28;;;;;;;10.15;7.43;;;;;;;;;;5044015;28;20079;-78
2022/08/05 07:04:53;;;;;;;7.10;6.60;;;;;;;;;;5031547;28;20041;-77
2022/08/05 07:07:20;;;;;;;9.90;7.32;;;;;;;;;;5032326;28;20094;-80
2022/08/05 07:09:46;;;;;;;8.07;7.28;;;;;;;;;;5021297;28;20033;-78
2022/08/05 07:16:48;;;;;;;8.75;7.05;;;;;;;;;;5051756;28;20761;-75
2022/08/05 07:17:41;;;;;;;9.73;7.20;;;;;;;;;;5045368;28;20064;-75
2022/08/05 07:20:07;;;;;;;7.90;7.20;;;;;;;;;;5030577;28;20056;-76
2022/08/05 07:22:32;;;;;;;9.35;6.80;;;;;;;;;;5048236;28;20075;-76
2022/08/05 07:25:00;;;;;;;7.13;6.60;;;;;;;;;;5046501;28;20044;-76
2022/08/05 07:27:25;;;;;;;7.95;7.25;;;;;;;;;;5047413;28;20865;-76
2022/08/05 07:29:51;;;;;;;7.88;6.80;;;;;;;;;;5048377;28;20495;-74
2022/08/05 07:32:17;;;;;;;8.68;6.60;;;;;;;;;;5049868;28;20593;-74
2022/08/05 07:34:42;;;;;;;9.23;6.57;;;;;;;;;;5041698;28;20033;-75
2022/08/05 07:37:08;;;;;;;7.63;6.80;;;;;;;;;;5029255;28;20072;-75
2022/08/05 07:39:33;;;;;;;9.65;7.05;;;;;;;;;;5047341;28;20041;-76
2022/08/05 07:41:59;;;;;;;10.23;6.70;;;;;;;;;;5027632;28;20036;-76
2022/08/05 07:44:25;;;;;;;6.82;6.32;;;;;;;;;;5002402;28;20083;-76
2022/08/05 07:46:50;;;;;;;10.65;6.43;;;;;;;;;;5012561;28;20132;-76
2022/08/05 07:49:17;;;;;;;8.07;6.63;;;;;;;;;;5046636;28;20411;-76
2022/08/05 07:51:43;;;;;;;10.73;6.55;;;;;;;;;;5024990;28;20469;-76
2022/08/05 07:54:08;;;;;;;7.35;6.65;;;;;;;;;;5046399;28;20041;-76
2022/08/05 07:56:34;;;;;;;8.60;6.65;;;;;;;;;;5050729;28;20040;-76
2022/08/05 07:59:00;;;;;;;7.43;6.57;;;;;;;;;;5039233;28;20036;-77
2022/08/05 08:01:26;;;;;;;7.38;6.68;;;;;;;;;;5044582;28;20037;-76
2022/08/05 08:03:52;;;;;;;7.03;6.43;;;;;;;;;;5044248;28;20036;-76
2022/08/05 08:06:18;;;;;;;7.70;6.55;;;;;;;;;;5006170;28;20029;-76
2022/08/05 08:08:43;;;;;;;8.70;6.60;;;;;;;;;;5031100;28;20104;-77
2022/08/05 08:11:09;;;;;;;6.90;6.20;;;;;;;;;;5047607;28;20029;-76
2022/08/05 08:13:34;;;;;;;6.30;5.75;;;;;;;;;;5044258;28;20032;-76
2022/08/05 08:16:00;;;;;;;6.80;6.22;;;;;;;;;;5041451;28;20044;-76
2022/08/05 08:18:26;;;;;;;7.32;5.45;;;;;;;;;;5044924;28;20435;-75
2022/08/05 08:20:52;;;;;;;11.00;6.22;;;;;;;;;;5042808;28;20069;-76
2022/08/05 08:23:17;;;;;;;6.97;6.32;;;;;;;;;;5033006;28;20032;-75
2022/08/05 08:25:43;;;;;;;6.25;5.82;;;;;;;;;;5031226;28;20033;-75
2022/08/05 08:28:09;;;;;;;7.53;5.78;;;;;;;;;;5045854;28;20131;-76
2022/08/05 08:30:35;;;;;;;6.78;6.07;;;;;;;;;;5044369;28;20475;-76
2022/08/05 08:33:06;;;;;;;6.35;5.90;;;;;;;;;;5046859;28;20049;-76
2022/08/05 08:35:32;;;;;;;6.75;5.60;;;;;;;;;;5042526;28;20037;-76
2022/08/05 08:37:57;;;;;;;6.50;5.90;;;;;;;;;;5044199;28;20388;-76
2022/08/05 08:40:24;;;;;;;7.07;6.10;;;;;;;;;;5037687;28;20182;-77
2022/08/05 08:42:51;;;;;;;6.53;6.03;;;;;;;;;;5041754;28;20280;-76
2022/08/05 08:45:20;;;;;;;7.93;5.45;;;;;;;;;;5029161;28;20489;-75
2022/08/05 08:47:49;;;;;;;8.70;5.95;;;;;;;;;;5041476;28;20040;-76
2022/08/05 08:50:16;;;;;;;6.10;5.60;;;;;;;;;;5040734;28;20036;-76
2022/08/05 08:52:47;;;;;;;6.55;5.95;;;;;;;;;;5042510;28;20393;-76
2022/08/05 08:55:13;;;;;;;6.20;5.80;;;;;;;;;;5047355;28;20040;-75
2022/08/05 08:57:40;;;;;;;6.00;5.60;;;;;;;;;;5038840;28;20040;-77
2022/08/05 09:00:07;;;;;;;6.00;5.60;;;;;;;;;;5030562;28;20045;-76
2022/08/05 09:02:33;;;;;;;6.32;5.63;;;;;;;;;;5044825;28;20037;-76
2022/08/05 09:04:59;;;;;;;5.68;5.28;;;;;;;;;;5022796;28;20039;-77
2022/08/05 09:07:24;;;;;;;6.05;5.55;;;;;;;;;;5048403;28;20104;-76
2022/08/05 09:09:50;;;;;;;6.03;5.40;;;;;;;;;;5044951;28;20566;-76
2022/08/05 09:12:16;;;;;;;5.45;5.10;;;;;;;;;;5045394;28;20045;-75
2022/08/05 09:14:42;;;;;;;5.43;5.00;;;;;;;;;;5042982;28;20064;-78
2022/08/05 09:17:11;;;;;;;5.50;5.13;;;;;;;;;;5047472;28;20029;-77
2022/08/05 09:19:37;;;;;;;;;;;;;;;;;;5051084;28;20465;-77
2022/08/05 09:22:03;;;;;;;5.60;5.07;;;;;;;;;;5051801;28;20035;-76
2022/08/05 09:24:29;;;;;;;5.60;5.10;;;;;;;;;;5048196;28;20929;-75
2022/08/05 09:26:56;;;;;;;5.95;5.45;;;;;;;;;;5049402;28;20044;-76
2022/08/05 09:29:37;;;;;;;5.90;5.40;;;;;;;;;;5044832;28;20032;-76
2022/08/05 09:32:05;;;;;;;6.70;5.95;;;;;;;;;;5049035;28;20033;-76
2022/08/05 09:34:52;;;;;;;6.05;5.65;;;;;;;;;;5050497;28;20651;-76
2022/08/05 09:37:20;;;;;;;5.95;5.55;;;;;;;;;;5032612;28;20508;-76
2022/08/05 09:39:46;;;;;;;5.63;5.32;;;;;;;;;;5046239;28;20094;-77
2022/08/05 09:42:17;;;;;;;6.70;5.95;;;;;;;;;;5028265;28;20029;-77
2022/08/05 09:44:45;;;;;;;12.27;6.32;;;;;;;;;;5050285;28;20112;-76
2022/08/05 09:47:19;;;;;;;5.82;5.32;;;;;;;;;;5047344;28;20052;-76
2022/08/05 09:49:50;;;;;;;6.07;5.53;;;;;;;;;;5047978;28;20037;-77
2022/08/05 09:52:18;;;;;;;5.63;5.28;;;;;;;;;;5033890;28;20029;-76
2022/08/05 09:55:06;;;;;;;5.30;5.00;;;;;;;;;;5051480;28;20043;-77
2022/08/05 09:57:36;;;;;;;5.78;5.28;;;;;;;;;;5050345;28;20369;-76
2022/08/05 10:00:23;;;;;;;5.80;5.40;;;;;;;;;;5051584;28;20037;-77
2022/08/05 10:02:54;;;;;;;5.97;5.43;;;;;;;;;;5045682;28;20119;-77
2022/08/05 10:05:22;;;;;;;5.38;5.05;;;;;;;;;;5033318;28;20044;-77
2022/08/05 10:07:59;;;;;;;5.10;4.70;;;;;;;;;;5030589;28;20040;-76
2022/08/05 10:10:45;;;;;;;5.35;5.05;;;;;;;;;;5046496;28;20052;-77
2022/08/05 10:13:11;;;;;;;5.82;5.28;;;;;;;;;;5047889;28;20033;-77
2022/08/05 10:15:40;;;;;;;5.88;5.32;;;;;;;;;;5043340;28;20037;-77
2022/08/05 10:18:12;;;;;;;5.20;4.80;;;;;;;;;;5051386;28;20036;-77
2022/08/05 10:20:40;;;;;;;5.45;5.03;;;;;;;;;;5047072;28;20025;-78
2022/08/05 10:23:06;;;;;;;6.70;5.90;;;;;;;;;;5047120;28;20029;-77
2022/08/05 10:25:32;;;;;;;5.50;5.00;;;;;;;;;;5050638;28;20176;-77
2022/08/05 10:27:59;;;;;;;5.25;4.75;;;;;;;;;;5033663;28;20108;-75
2022/08/05 10:30:25;;;;;;;5.97;4.88;;;;;;;;;;5044297;28;20040;-75
2022/08/05 10:32:53;;;;;;;5.95;5.45;;;;;;;;;;5044729;28;20033;-76
2022/08/05 10:35:19;;;;;;;5.43;4.80;;;;;;;;;;5051150;28;20485;-76
2022/08/05 10:37:46;;;;;;;5.15;4.80;;;;;;;;;;5045235;28;20036;-76
2022/08/05 10:40:27;;;;;;;5.55;5.15;;;;;;;;;;5050229;28;20060;-76
2022/08/05 10:42:59;;;;;;;5.63;5.28;;;;;;;;;;5040884;28;20042;-76
2022/08/05 10:45:27;;;;;;;5.82;5.43;;;;;;;;;;5048746;28;20086;-77
2022/08/05 10:47:53;;;;;;;5.72;5.28;;;;;;;;;;5045010;28;20048;-76
2022/08/05 10:50:19;;;;;;;5.25;4.85;;;;;;;;;;5029252;28;20036;-76
2022/08/05 10:52:52;;;;;;;5.20;4.80;;;;;;;;;;5042342;28;20387;-76
2022/08/05 10:55:19;;;;;;;5.72;4.63;;;;;;;;;;5044420;28;20028;-76
2022/08/05 10:57:45;;;;;;;4.32;4.03;;;;;;;;;;5047934;28;20032;-76
2022/08/05 11:00:23;;;;;;;5.55;5.05;;;;;;;;;;5050132;28;20503;-77
2022/08/05 11:03:04;;;;;;;5.82;5.20;;;;;;;;;;5044447;28;20045;-76
2022/08/05 11:05:30;;;;;;;5.80;5.40;;;;;;;;;;5027883;28;20040;-76
2022/08/05 11:08:04;;;;;;;5.55;5.15;;;;;;;;;;5047005;28;20648;-77
2022/08/05 11:10:31;;;;;;;6.05;5.00;;;;;;;;;;5047365;28;20816;-76
2022/08/05 11:12:58;;;;;;;6.20;5.70;;;;;;;;;;5047844;28;20052;-76
2022/08/05 11:15:39;;;;;;;6.30;5.40;;;;;;;;;;5029343;28;20396;-76
2022/08/05 11:18:22;;;;;;;5.97;5.38;;;;;;;;;;5046685;28;20020;-76
2022/08/05 11:20:52;;;;;;;5.75;5.25;;;;;;;;;;5045752;28;20115;-77
2022/08/05 11:23:42;;;;;;;6.28;5.78;;;;;;;;;;5028135;28;20493;-76
2022/08/05 11:26:14;;;;;;;6.05;5.38;;;;;;;;;;5046897;28;20032;-76
2022/08/05 11:28:43;;;;;;;5.88;5.38;;;;;;;;;;5040853;28;20049;-77
2022/08/05 11:31:08;;;;;;;6.80;5.50;;;;;;;;;;5044339;28;20036;-77
2022/08/05 11:33:39;;;;;;;6.15;5.65;;;;;;;;;;5046395;28;20035;-76
2022/08/05 11:36:08;;;;;;;5.90;5.40;;;;;;;;;;5045301;28;20395;-77
2022/08/05 11:38:37;;;;;;;7.50;5.47;;;;;;;;;;5038280;28;20036;-76
2022/08/05 11:41:04;;;;;;;6.18;5.55;;;;;;;;;;5045194;28;20091;-76
2022/08/05 11:43:31;;;;;;;6.30;5.77;;;;;;;;;;5044570;28;20048;-76
2022/08/05 11:45:57;;;;;;;5.90;5.50;;;;;;;;;;5045518;28;20291;-76
2022/08/05 11:48:24;;;;;;;5.90;5.32;;;;;;;;;;5046227;28;20033;-76
2022/08/05 11:50:50;;;;;;;6.10;5.45;;;;;;;;;;5045146;28;20037;-77
2022/08/05 11:53:17;;;;;;;6.25;5.70;;;;;;;;;;5046759;28;20057;-76
2022/08/05 11:55:57;;;;;;;6.00;5.60;;;;;;;;;;5042985;28;20037;-77
2022/08/05 11:58:27;;;;;;;6.50;5.90;;;;;;;;;;5045880;28;20029;-76
2022/08/05 12:01:04;;;;;;;6.25;5.65;;;;;;;;;;5027727;28;20036;-76
2022/08/05 12:03:40;;;;;;;6.53;6.07;;;;;;;;;;5043279;28;20062;-76
2022/08/05 12:06:06;;;;;;;5.97;5.57;;;;;;;;;;5045157;28;20469;-76
2022/08/05 12:08:32;;;;;;;6.43;5.82;;;;;;;;;;5029280;28;20037;-76
2022/08/05 12:10:59;;;;;;;6.50;6.00;;;;;;;;;;5046412;28;20099;-76
2022/08/05 12:13:25;;;;;;;6.18;5.78;;;;;;;;;;5040244;28;20055;-76
2022/08/05 12:15:50;;;;;;;6.90;5.90;;;;;;;;;;5024031;28;20523;-76
2022/08/05 12:18:28;;;;;;;6.30;5.80;;;;;;;;;;5047060;28;20041;-76
2022/08/05 12:20:54;;;;;;;6.60;6.00;;;;;;;;;;5042285;28;20036;-76
2022/08/05 12:23:20;;;;;;;6.47;5.97;;;;;;;;;;5043951;28;20689;-76
2022/08/05 12:25:53;;;;;;;6.47;5.95;;;;;;;;;;5046359;28;20469;-76
2022/08/05 12:28:36;;;;;;;6.13;5.63;;;;;;;;;;5044734;28;20079;-76
2022/08/05 12:31:03;;;;;;;6.65;6.15;;;;;;;;;;5042507;28;20091;-77
2022/08/05 12:33:29;;;;;;;6.30;5.90;;;;;;;;;;5040227;28;20048;-77
2022/08/05 12:35:56;;;;;;;6.28;5.65;;;;;;;;;;5044996;28;20036;-76
2022/08/05 12:38:22;;;;;;;6.40;6.00;;;;;;;;;;5044234;28;20033;-76
2022/08/05 12:40:49;;;;;;;6.55;5.82;;;;;;;;;;5042410;28;20123;-76
2022/08/05 12:43:15;;;;;;;6.22;5.80;;;;;;;;;;5041370;28;20041;-76
2022/08/05 12:45:53;;;;;;;6.18;5.78;;;;;;;;;;5043604;28;20036;-76
2022/08/05 12:48:19;;;;;;;6.65;6.07;;;;;;;;;;5043913;28;20048;-76
2022/08/05 12:51:09;;;;;;;5.90;5.53;;;;;;;;;;5024317;28;20037;-77
2022/08/05 12:53:40;;;;;;;6.60;6.00;;;;;;;;;;5042126;28;20045;-76
2022/08/05 12:56:22;;;;;;;6.30;5.82;;;;;;;;;;5044221;28;20036;-77
2022/08/05 12:59:14;;;;;;;6.15;5.63;;;;;;;;;;5049411;28;20055;-77
2022/08/05 13:01:52;;;;;;;6.45;5.85;;;;;;;;;;5044994;28;20045;-76
2022/08/05 13:04:18;;;;;;;5.85;5.38;;;;;;;;;;5045948;28;20040;-76
2022/08/05 13:06:43;;;;;;;6.07;5.68;;;;;;;;;;5046054;28;20043;-77
2022/08/05 13:09:11;;;;;;;6.05;5.65;;;;;;;;;;5048831;28;20040;-77
2022/08/05 13:11:39;;;;;;;;;;;;;;;;;;5049169;28;20040;-77
2022/08/05 13:14:23;;;;;;;6.00;5.55;;;;;;;;;;5030072;28;20323;-76
2022/08/05 13:16:54;;;;;;;5.95;5.55;;;;;;;;;;5051867;28;20074;-76
2022/08/05 13:19:27;;;;;;;6.30;5.88;;;;;;;;;;5048226;28;20045;-76
2022/08/05 13:21:53;;;;;;;5.93;5.55;;;;;;;;;;5044099;28;20040;-77
2022/08/05 13:24:22;;;;;;;5.70;5.40;;;;;;;;;;5045539;28;20165;-77
2022/08/05 13:26:49;;;;;;;6.15;5.75;;;;;;;;;;5051615;28;20411;-76
2022/08/05 13:29:15;;;;;;;6.38;5.90;;;;;;;;;;5045316;28;20029;-77
2022/08/05 13:31:41;;;;;;;5.85;5.45;;;;;;;;;;5047226;28;20029;-77
2022/08/05 13:34:07;;;;;;;6.30;5.70;;;;;;;;;;5046425;28;20420;-77
2022/08/05 13:36:34;;;;;;;6.25;5.75;;;;;;;;;;5049342;28;20075;-76
2022/08/05 13:39:04;;;;;;;6.60;6.20;;;;;;;;;;5045096;28;20044;-76
2022/08/05 13:41:29;;;;;;;6.60;6.10;;;;;;;;;;5050628;28;20033;-77
2022/08/05 13:43:55;;;;;;;6.57;5.97;;;;;;;;;;5048114;28;20560;-76
2022/08/05 13:46:22;;;;;;;6.68;6.25;;;;;;;;;;5045084;28;20037;-77
2022/08/05 13:48:55;;;;;;;6.25;5.85;;;;;;;;;;5046354;28;20033;-77
2022/08/05 13:51:31;;;;;;;6.72;6.05;;;;;;;;;;5047217;28;20082;-77
2022/08/05 13:53:58;;;;;;;6.28;5.68;;;;;;;;;;5047592;28;20722;-77
2022/08/05 13:56:24;;;;;;;6.72;5.63;;;;;;;;;;5045407;28;20056;-77
2022/08/05 13:58:49;;;;;;;5.97;5.55;;;;;;;;;;5047696;28;20593;-75
2022/08/05 14:01:15;;;;;;;6.45;5.80;;;;;;;;;;5047879;28;20043;-77
2022/08/05 14:03:41;;;;;;;6.00;5.60;;;;;;;;;;5050487;28;20039;-77
2022/08/05 14:06:07;;;;;;;6.78;5.80;;;;;;;;;;5044285;28;20397;-77
2022/08/05 14:08:32;;;;;;;6.63;5.68;;;;;;;;;;5049497;28;20037;-76
2022/08/05 14:10:58;;;;;;;6.32;5.80;;;;;;;;;;5050802;28;20043;-77
2022/08/05 14:13:24;;;;;;;6.38;5.88;;;;;;;;;;5030039;28;20040;-77
2022/08/05 14:15:50;;;;;;;6.43;5.82;;;;;;;;;;5047423;28;20040;-76
2022/08/05 14:18:16;;;;;;;6.40;5.90;;;;;;;;;;5046505;28;20080;-76
2022/08/05 14:20:41;;;;;;;6.20;5.80;;;;;;;;;;5032430;28;20392;-77
2022/08/05 14:23:07;;;;;;;6.22;5.72;;;;;;;;;;5045056;28;20036;-76
2022/08/05 14:25:32;;;;;;;7.95;5.93;;;;;;;;;;5044682;28;20094;-76
2022/08/05 14:27:58;;;;;;;6.28;5.80;;;;;;;;;;5048324;28;20044;-76
2022/08/05 14:30:24;;;;;;;6.85;6.20;;;;;;;;;;5046222;28;20041;-76
2022/08/05 14:32:50;;;;;;;6.43;5.93;;;;;;;;;;5045442;28;20028;-77
2022/08/05 14:35:15;;;;;;;6.28;5.88;;;;;;;;;;5046188;28;20047;-77
2022/08/05 14:37:41;;;;;;;6.72;6.00;;;;;;;;;;5048160;28;20033;-77
2022/08/05 14:40:07;;;;;;;6.43;5.82;;;;;;;;;;5046647;28;20096;-76
2022/08/05 14:42:33;;;;;;;5.90;5.40;;;;;;;;;;5048578;28;20551;-77
2022/08/05 14:44:59;;;;;;;6.97;6.10;;;;;;;;;;5049471;28;20052;-77
2022/08/05 14:47:24;;;;;;;7.07;6.07;;;;;;;;;;5043260;28;20488;-76
2022/08/05 14:49:50;;;;;;;6.60;6.10;;;;;;;;;;5045767;28;20170;-76